Time;durP1;ratioP1;P1;durP2;ratioP2;P2;SDS_P1;SDS_P2;PMS_P1;PMS_P2;Temp;Humidity;BMP_temperature;BMP_pressure;BME280_temperature;BME280_humidity;BME280_pressure;Samples;Min_cycle;Max_cycle;Signal;HPM_P1;HPM_P2
2023/05/24 00:00:23;;;;;;;;;;;19.30;69.70;;;;;;5083021;28;20020;-80
2023/05/24 00:02:49;;;;;;;;;;;19.30;69.80;;;;;;5083349;28;19927;-80
2023/05/24 00:05:15;;;;;;;;;;;19.30;69.90;;;;;;5083339;28;20174;-80
2023/05/24 00:07:41;;;;;;;;;;;19.30;69.80;;;;;;5301627;22;19924;-79
2023/05/24 00:10:07;;;;;;;;;;;19.20;69.90;;;;;;5076843;28;19924;-80
2023/05/24 00:12:32;;;;;;;;;;;19.30;70.00;;;;;;5078523;28;19914;-79
2023/05/24 00:14:58;;;;;;;;;;;19.20;69.90;;;;;;5060824;28;20049;-81
2023/05/24 00:17:24;;;;;;;;;;;19.20;70.00;;;;;;5060632;28;19924;-81
2023/05/24 00:19:51;;;;;;;;;;;19.20;69.90;;;;;;5060170;28;20201;-81
2023/05/24 00:22:19;;;;;;;;;;;19.20;69.90;;;;;;5059546;28;20059;-81
2023/05/24 00:24:45;;;;;;;;;;;19.20;70.00;;;;;;5059760;28;19940;-80
2023/05/24 00:27:11;;;;;;;;;;;19.20;69.90;;;;;;5060151;28;19951;-80
2023/05/24 00:29:37;;;;;;;;;;;19.10;69.80;;;;;;5076889;28;19947;-80
2023/05/24 00:32:02;;;;;;;;;;;19.10;69.90;;;;;;5059536;28;19950;-80
2023/05/24 00:34:28;;;;;;;;;;;19.10;69.90;;;;;;5059669;28;19909;-80
2023/05/24 00:36:53;;;;;;;;;;;19.10;69.90;;;;;;5059819;28;19908;-81
2023/05/24 00:39:20;;;;;;;;;;;19.10;69.90;;;;;;5060637;28;19908;-81
2023/05/24 00:41:46;;;;;;;;;;;19.10;69.90;;;;;;5059142;28;19955;-81
2023/05/24 00:44:11;;;;;;;;;;;19.00;69.80;;;;;;5058806;28;19916;-81
2023/05/24 00:46:38;;;;;;;;;;;19.00;69.80;;;;;;5076541;28;20194;-81
2023/05/24 00:49:03;;;;;;;;;;;19.00;69.90;;;;;;5059954;28;20009;-81
2023/05/24 00:51:30;;;;;;;;;;;19.00;70.00;;;;;;5054920;28;19912;-81
2023/05/24 00:53:56;;;;;;;;;;;19.00;70.00;;;;;;5056644;28;19916;-80
2023/05/24 00:56:22;;;;;;;;;;;19.00;70.00;;;;;;5055972;28;19912;-80
2023/05/24 00:58:49;;;;;;;;;;;18.90;69.90;;;;;;5056598;28;19909;-80
2023/05/24 01:01:15;;;;;;;;;;;18.90;69.90;;;;;;5057967;28;19941;-80
2023/05/24 01:03:40;;;;;;;;;;;18.90;69.90;;;;;;5056515;28;19950;-80
2023/05/24 01:06:07;;;;;;;;;;;18.90;70.00;;;;;;5058541;28;20285;-80
2023/05/24 01:08:39;;;;;;;;;;;18.90;70.00;;;;;;5076401;28;19917;-80
2023/05/24 01:11:23;;;;;;;;;;;18.90;70.00;;;;;;5075835;28;20309;-81
2023/05/24 01:14:13;;;;;;;;;;;18.90;70.00;;;;;;5058347;28;19908;-81
2023/05/24 01:16:57;;;;;;;;;;;18.80;69.90;;;;;;5059385;28;19919;-80
2023/05/24 01:19:35;;;;;;;;;;;18.80;69.90;;;;;;5059765;28;19909;-80
2023/05/24 01:22:01;;;;;;;;;;;18.80;69.90;;;;;;5076715;28;20262;-80
2023/05/24 01:24:37;;;;;;;;;;;18.80;69.90;;;;;;5060170;28;19959;-80
2023/05/24 01:27:05;;;;;;;;;;;18.80;69.90;;;;;;5060318;28;19908;-80
2023/05/24 01:29:32;;;;;;;;;;;18.80;69.90;;;;;;5059230;28;20078;-80
2023/05/24 01:31:58;;;;;;;;;;;18.80;69.90;;;;;;5056901;28;20233;-80
2023/05/24 01:34:26;;;;;;;;;;;18.80;69.90;;;;;;5057030;28;20270;-80
2023/05/24 01:36:52;;;;;;;;;;;18.70;69.90;;;;;;5076803;28;19916;-80
2023/05/24 01:39:19;;;;;;;;;;;18.70;69.90;;;;;;5076973;28;19909;-80
2023/05/24 01:41:58;;;;;;;;;;;18.70;69.90;;;;;;5059228;28;20069;-80
2023/05/24 01:44:35;;;;;;;;;;;18.70;69.90;;;;;;5058464;28;19909;-80
2023/05/24 01:47:03;;;;;;;;;;;18.70;70.00;;;;;;5058503;28;20293;-80
2023/05/24 01:49:33;;;;;;;;;;;18.70;70.00;;;;;;5058362;28;19919;-80
2023/05/24 01:52:00;;;;;;;;;;;18.60;69.90;;;;;;5056798;28;19912;-80
2023/05/24 01:54:27;;;;;;;;;;;18.60;69.90;;;;;;5060338;28;20079;-80
2023/05/24 01:56:53;;;;;;;;;;;18.60;69.90;;;;;;5061856;28;19908;-80
2023/05/24 01:59:21;;;;;;;;;;;18.60;70.00;;;;;;5062093;28;20011;-80
2023/05/24 02:01:47;;;;;;;;;;;18.60;70.00;;;;;;5078358;28;19962;-81
2023/05/24 02:04:13;;;;;;;;;;;18.60;70.00;;;;;;5061162;28;19908;-80
2023/05/24 02:06:38;;;;;;;;;;;18.50;69.90;;;;;;5078769;28;19916;-80
2023/05/24 02:09:04;;;;;;;;;;;18.50;69.90;;;;;;5044124;28;20286;-80
2023/05/24 02:11:29;;;;;;;;;;;18.50;69.90;;;;;;5059001;28;20403;-80
2023/05/24 02:13:55;;;;;;;;;;;18.50;69.90;;;;;;5041421;28;19992;-80
2023/05/24 02:16:22;;;;;;;;;;;18.50;69.90;;;;;;5042072;28;20363;-80
2023/05/24 02:18:49;;;;;;;;;;;18.40;69.90;;;;;;5042369;28;19908;-80
2023/05/24 02:21:15;;;;;;;;;;;18.50;70.00;;;;;;5043002;28;20007;-80
2023/05/24 02:23:40;;;;;;;;;;;18.40;69.90;;;;;;5043126;28;19948;-80
2023/05/24 02:26:06;;;;;;;;;;;18.40;69.90;;;;;;5060216;28;19909;-80
2023/05/24 02:28:32;;;;;;;;;;;18.40;69.90;;;;;;5043713;28;19909;-80
2023/05/24 02:30:57;;;;;;;;;;;18.40;69.90;;;;;;5061168;28;19934;-80
2023/05/24 02:33:24;;;;;;;;;;;18.40;69.90;;;;;;5043464;28;20062;-80
2023/05/24 02:35:50;;;;;;;;;;;18.40;70.00;;;;;;5042625;28;19920;-80
2023/05/24 02:38:16;;;;;;;;;;;18.30;70.00;;;;;;5042813;28;19909;-80
2023/05/24 02:40:41;;;;;;;;;;;18.30;70.00;;;;;;5040980;28;19916;-80
2023/05/24 02:43:08;;;;;;;;;;;18.30;70.00;;;;;;5041357;28;20011;-80
2023/05/24 02:45:35;;;;;;;;;;;18.30;70.00;;;;;;5041922;28;20008;-81
2023/05/24 02:48:01;;;;;;;;;;;18.30;70.00;;;;;;5058961;28;20202;-81
2023/05/24 02:50:26;;;;;;;;;;;18.30;70.00;;;;;;5042548;28;19915;-80
2023/05/24 02:52:52;;;;;;;;;;;18.30;70.10;;;;;;5042760;28;19935;-80
2023/05/24 02:55:17;;;;;;;;;;;18.20;70.10;;;;;;5041529;28;19978;-80
2023/05/24 02:57:43;;;;;;;;;;;18.20;70.10;;;;;;5042296;28;20278;-80
2023/05/24 03:00:10;;;;;;;;;;;18.20;70.10;;;;;;5042429;28;20190;-80
2023/05/24 03:02:37;;;;;;;;;;;18.20;70.10;;;;;;5041540;28;19913;-80
2023/05/24 03:05:02;;;;;;;;;;;18.20;70.10;;;;;;5066492;28;19905;-80
2023/05/24 03:07:28;;;;;;;;;;;18.20;70.10;;;;;;5047356;28;20267;-80
2023/05/24 03:09:54;;;;;;;;;;;18.20;70.10;;;;;;5077440;28;19919;-80
2023/05/24 03:12:19;;;;;;;;;;;18.20;70.20;;;;;;5059734;28;19971;-80
2023/05/24 03:14:45;;;;;;;;;;;18.10;70.10;;;;;;5058334;28;20275;-80
2023/05/24 03:17:13;;;;;;;;;;;18.10;70.10;;;;;;5076064;28;19939;-80
2023/05/24 03:19:38;;;;;;;;;;;18.10;70.00;;;;;;5060148;28;20009;-80
2023/05/24 03:22:04;;;;;;;;;;;18.10;70.00;;;;;;5059522;28;19958;-80
2023/05/24 03:24:30;;;;;;;;;;;18.10;70.00;;;;;;5059730;28;19908;-80
2023/05/24 03:26:56;;;;;;;;;;;18.10;70.10;;;;;;5078675;28;19908;-80
2023/05/24 03:29:21;;;;;;;;;;;18.10;70.10;;;;;;5060014;28;19985;-80
2023/05/24 03:31:47;;;;;;;;;;;18.00;70.00;;;;;;5060445;28;19923;-80
2023/05/24 03:34:12;;;;;;;;;;;18.00;70.00;;;;;;5059951;28;19975;-80
2023/05/24 03:36:38;;;;;;;;;;;18.00;70.00;;;;;;5058703;28;19931;-80
2023/05/24 03:39:04;;;;;;;;;;;18.00;70.00;;;;;;5076157;28;19913;-80
2023/05/24 03:41:30;;;;;;;;;;;18.00;70.00;;;;;;5057739;28;19963;-80
2023/05/24 03:43:55;;;;;;;;;;;18.00;69.90;;;;;;5059598;28;19908;-80
2023/05/24 03:46:21;;;;;;;;;;;18.00;69.90;;;;;;5060167;28;20258;-80
2023/05/24 03:48:47;;;;;;;;;;;18.00;69.80;;;;;;5076925;28;20001;-80
2023/05/24 03:51:12;;;;;;;;;;;17.90;69.80;;;;;;5075594;28;20006;-80
2023/05/24 03:53:38;;;;;;;;;;;18.00;69.80;;;;;;5057860;28;20007;-80
2023/05/24 03:56:03;;;;;;;;;;;17.90;69.60;;;;;;5057594;28;19913;-80
2023/05/24 03:58:29;;;;;;;;;;;17.90;69.60;;;;;;5055919;28;20282;-80
2023/05/24 04:00:55;;;;;;;;;;;17.90;69.60;;;;;;5057206;28;20354;-80
2023/05/24 04:03:20;;;;;;;;;;;17.90;69.60;;;;;;5057272;28;19956;-80
2023/05/24 04:05:46;;;;;;;;;;;17.90;69.60;;;;;;5058234;28;19909;-80
2023/05/24 04:08:13;;;;;;;;;;;17.90;69.50;;;;;;5057573;28;20325;-80
2023/05/24 04:10:40;;;;;;;;;;;17.90;69.40;;;;;;5056836;28;19909;-80
2023/05/24 04:13:06;;;;;;;;;;;17.90;69.30;;;;;;5056395;28;19996;-80
2023/05/24 04:15:32;;;;;;;;;;;17.90;69.30;;;;;;5056372;28;19909;-80
2023/05/24 04:17:59;;;;;;;;;;;17.90;69.20;;;;;;5057284;28;19969;-80
2023/05/24 04:20:26;;;;;;;;;;;17.90;69.10;;;;;;5074647;28;20002;-80
2023/05/24 04:22:52;;;;;;;;;;;17.90;69.10;;;;;;5074930;28;19916;-80
2023/05/24 04:25:18;;;;;;;;;;;17.90;69.00;;;;;;5058820;28;20201;-80
2023/05/24 04:27:43;;;;;;;;;;;17.90;68.90;;;;;;5075651;28;20270;-80
2023/05/24 04:30:09;;;;;;;;;;;17.90;68.80;;;;;;5073238;28;19908;-80
2023/05/24 04:32:35;;;;;;;;;;;17.90;68.80;;;;;;5054578;28;19974;-80
2023/05/24 04:35:01;;;;;;;;;;;18.00;68.70;;;;;;5070925;28;19917;-80
2023/05/24 04:37:28;;;;;;;;;;;18.00;68.60;;;;;;5054909;28;19916;-80
2023/05/24 04:39:53;;;;;;;;;;;18.00;68.50;;;;;;5053568;28;20327;-80
2023/05/24 04:42:19;;;;;;;;;;;18.00;68.40;;;;;;5054446;28;19908;-80
2023/05/24 04:44:45;;;;;;;;;;;18.00;68.40;;;;;;5052916;28;19936;-80
2023/05/24 04:47:11;;;;;;;;;;;17.90;68.20;;;;;;5055878;28;19909;-80
2023/05/24 04:49:37;;;;;;;;;;;17.90;68.20;;;;;;5053866;28;19919;-80
2023/05/24 04:52:05;;;;;;;;;;;18.00;68.10;;;;;;5053846;28;20131;-80
2023/05/24 04:54:30;;;;;;;;;;;18.00;68.10;;;;;;5070998;28;19939;-80
2023/05/24 04:56:56;;;;;;;;;;;18.00;68.00;;;;;;5052955;28;19984;-80
2023/05/24 04:59:21;;;;;;;;;;;18.00;67.90;;;;;;5054324;28;19909;-80
2023/05/24 05:01:47;;;;;;;;;;;18.00;67.80;;;;;;5055987;28;19908;-81
2023/05/24 05:04:12;;;;;;;;;;;18.00;67.70;;;;;;5070342;28;19909;-80
2023/05/24 05:06:39;;;;;;;;;;;18.10;67.60;;;;;;5052946;28;19948;-80
2023/05/24 05:09:09;;;;;;;;;;;18.10;67.40;;;;;;5054140;28;19967;-80
2023/05/24 05:11:35;;;;;;;;;;;18.10;67.30;;;;;;5051599;28;19913;-80
2023/05/24 05:14:01;;;;;;;;;;;18.10;67.10;;;;;;5052371;28;19908;-80
2023/05/24 05:16:26;;;;;;;;;;;18.20;67.00;;;;;;5052861;28;19916;-80
2023/05/24 05:18:52;;;;;;;;;;;18.20;66.80;;;;;;5050994;28;20137;-80
2023/05/24 05:21:17;;;;;;;;;;;18.30;66.70;;;;;;5051465;28;19915;-80
2023/05/24 05:23:44;;;;;;;;;;;18.30;66.60;;;;;;5052607;28;20003;-80
2023/05/24 05:26:10;;;;;;;;;;;18.30;66.50;;;;;;5052938;28;20183;-80
2023/05/24 05:28:36;;;;;;;;;;;18.40;66.50;;;;;;5053068;28;19920;-80
2023/05/24 05:31:01;;;;;;;;;;;18.40;66.40;;;;;;5052149;28;19923;-80
2023/05/24 05:33:27;;;;;;;;;;;18.50;66.10;;;;;;5051994;28;19947;-80
2023/05/24 05:35:53;;;;;;;;;;;18.50;65.80;;;;;;5049815;28;19909;-80
2023/05/24 05:38:18;;;;;;;;;;;18.60;65.40;;;;;;5068121;28;19909;-80
2023/05/24 05:40:44;;;;;;;;;;;18.70;65.00;;;;;;5051050;28;20336;-80
2023/05/24 05:43:09;;;;;;;;;;;18.70;64.60;;;;;;5049844;28;19959;-80
2023/05/24 05:45:37;;;;;;;;;;;18.80;64.10;;;;;;5066269;28;19935;-80
2023/05/24 05:48:03;;;;;;;;;;;18.90;63.80;;;;;;5046660;28;20427;-80
2023/05/24 05:50:28;;;;;;;;;;;19.00;63.50;;;;;;5065872;28;19912;-80
2023/05/24 05:52:54;;;;;;;;;;;19.00;63.20;;;;;;5050008;28;20398;-80
2023/05/24 05:55:20;;;;;;;;;;;19.00;63.00;;;;;;5049888;28;19940;-80
2023/05/24 05:57:45;;;;;;;;;;;19.00;62.80;;;;;;5048431;28;19999;-80
2023/05/24 06:00:11;;;;;;;;;;;19.00;62.80;;;;;;5047661;28;20058;-80
2023/05/24 06:02:37;;;;;;;;;;;19.00;62.90;;;;;;5047858;28;20003;-80
2023/05/24 06:05:02;;;;;;;;;;;19.00;62.90;;;;;;5064624;28;20057;-80
2023/05/24 06:07:29;;;;;;;;;;;18.90;62.90;;;;;;5048228;28;20136;-80
2023/05/24 06:09:54;;;;;;;;;;;19.00;62.90;;;;;;5067220;28;20133;-80
2023/05/24 06:12:20;;;;;;;;;;;18.90;62.90;;;;;;5048895;28;20202;-80
2023/05/24 06:14:49;;;;;;;;;;;19.00;63.00;;;;;;5047998;28;19918;-81
2023/05/24 06:17:15;;;;;;;;;;;19.00;62.80;;;;;;5048880;28;19909;-80
2023/05/24 06:19:40;;;;;;;;;;;19.00;62.70;;;;;;5047264;28;20138;-80
2023/05/24 06:22:06;;;;;;;;;;;19.10;62.50;;;;;;5047071;28;19908;-80
2023/05/24 06:24:33;;;;;;;;;;;19.10;62.50;;;;;;5065883;28;19909;-80
2023/05/24 06:26:59;;;;;;;;;;;19.10;62.50;;;;;;5048530;28;19908;-80
2023/05/24 06:29:24;;;;;;;;;;;19.10;62.50;;;;;;5050009;28;20194;-80
2023/05/24 06:31:50;;;;;;;;;;;19.10;62.50;;;;;;5048326;28;20206;-80
2023/05/24 06:34:17;;;;;;;;;;;19.10;62.50;;;;;;5048528;28;20312;-80
2023/05/24 06:36:45;;;;;;;;;;;19.10;62.50;;;;;;5066252;28;19909;-80
2023/05/24 06:39:12;;;;;;;;;;;19.10;62.50;;;;;;5048567;28;20262;-81
2023/05/24 06:41:38;;;;;;;;;;;19.20;62.40;;;;;;5067227;28;20251;-80
2023/05/24 06:44:03;;;;;;;;;;;19.20;62.10;;;;;;5049996;28;19946;-80
2023/05/24 06:46:29;;;;;;;;;;;19.30;61.90;;;;;;5050736;28;20194;-81
2023/05/24 06:48:55;;;;;;;;;;;19.30;61.70;;;;;;5051389;28;19917;-80
2023/05/24 06:51:20;;;;;;;;;;;19.30;61.60;;;;;;5050286;28;20018;-80
2023/05/24 06:53:47;;;;;;;;;;;19.40;61.50;;;;;;5067371;28;19920;-81
2023/05/24 06:56:12;;;;;;;;;;;19.40;61.30;;;;;;5048728;28;19909;-82
2023/05/24 06:58:40;;;;;;;;;;;19.40;61.00;;;;;;5069473;28;20320;-80
2023/05/24 07:01:06;;;;;;;;;;;19.50;60.90;;;;;;5050871;28;20098;-81
2023/05/24 07:03:31;;;;;;;;;;;19.50;60.60;;;;;;5052639;28;19943;-81
2023/05/24 07:05:57;;;;;;;;;;;19.60;60.40;;;;;;5050692;28;19908;-80
2023/05/24 07:08:26;;;;;;;;;;;19.70;60.10;;;;;;5067165;28;19916;-81
2023/05/24 07:10:55;;;;;;;;;;;19.80;59.80;;;;;;5049546;28;20289;-81
2023/05/24 07:13:20;;;;;;;;;;;19.80;59.60;;;;;;5049589;28;19909;-81
2023/05/24 07:15:46;;;;;;;;;;;19.90;59.50;;;;;;5049572;28;19916;-81
2023/05/24 07:18:12;;;;;;;;;;;20.00;59.40;;;;;;5050448;28;20297;-81
2023/05/24 07:20:37;;;;;;;;;;;20.20;58.90;;;;;;5057165;28;19935;-81
2023/05/24 07:23:03;;;;;;;;;;;20.40;58.60;;;;;;5058116;28;19909;-81
2023/05/24 07:25:29;;;;;;;;;;;20.80;57.80;;;;;;5049129;28;19919;-81
2023/05/24 07:27:54;;;;;;;;;;;20.80;57.30;;;;;;5050143;28;19918;-81
2023/05/24 07:30:20;;;;;;;;;;;20.70;57.40;;;;;;5068807;28;20079;-81
2023/05/24 07:32:46;;;;;;;;;;;20.50;57.60;;;;;;5050414;28;19919;-81
2023/05/24 07:35:11;;;;;;;;;;;20.40;57.80;;;;;;5050574;28;19912;-81
2023/05/24 07:37:37;;;;;;;;;;;20.40;57.80;;;;;;5051263;28;19909;-82
2023/05/24 07:40:05;;;;;;;;;;;20.40;57.90;;;;;;5050862;28;20125;-81
2023/05/24 07:42:31;;;;;;;;;;;21.10;57.40;;;;;;5049627;28;19920;-81
2023/05/24 07:44:56;;;;;;;;;;;21.60;56.50;;;;;;5052057;28;19909;-81
2023/05/24 07:47:22;;;;;;;;;;;21.70;55.80;;;;;;5053427;28;19916;-82
2023/05/24 07:49:47;;;;;;;;;;;21.70;55.50;;;;;;5052425;28;19916;-81
2023/05/24 07:52:13;;;;;;;;;;;21.50;55.50;;;;;;5051738;28;19920;-81
2023/05/24 07:54:39;;;;;;;;;;;21.30;55.70;;;;;;5052017;28;20175;-81
2023/05/24 07:57:04;;;;;;;;;;;21.00;56.00;;;;;;5068031;28;20268;-81
2023/05/24 07:59:30;;;;;;;;;;;20.80;56.30;;;;;;5053656;28;19963;-81
2023/05/24 08:02:00;;;;;;;;;;;20.70;56.60;;;;;;5052313;28;20076;-81
2023/05/24 08:04:26;;;;;;;;;;;20.50;56.80;;;;;;5050634;28;20133;-81
2023/05/24 08:06:51;;;;;;;;;;;20.40;57.00;;;;;;5066109;28;20471;-82
2023/05/24 08:09:17;;;;;;;;;;;20.30;57.30;;;;;;5066956;28;19917;-82
2023/05/24 08:11:42;;;;;;;;;;;20.30;57.50;;;;;;5051111;28;19913;-81
2023/05/24 08:14:08;;;;;;;;;;;20.20;57.60;;;;;;5051931;28;20288;-81
2023/05/24 08:16:34;;;;;;;;;;;20.10;57.80;;;;;;5051402;28;20236;-82
2023/05/24 08:19:00;;;;;;;;;;;20.10;57.90;;;;;;5050717;28;19908;-82
2023/05/24 08:21:26;;;;;;;;;;;20.00;58.00;;;;;;5051491;28;19923;-81
2023/05/24 08:23:52;;;;;;;;;;;20.00;58.10;;;;;;5052578;28;19908;-81
2023/05/24 08:26:19;;;;;;;;;;;20.00;58.10;;;;;;5052528;28;19935;-81
2023/05/24 08:28:46;;;;;;;;;;;20.00;58.20;;;;;;5050897;28;20086;-81
2023/05/24 08:31:11;;;;;;;;;;;20.00;58.30;;;;;;5069016;28;19927;-80
2023/05/24 08:33:37;;;;;;;;;;;20.00;58.30;;;;;;5051983;28;19924;-81
2023/05/24 08:36:02;;;;;;;;;;;19.90;58.40;;;;;;5066656;28;20052;-81
2023/05/24 08:38:29;;;;;;;;;;;19.90;58.40;;;;;;5068277;28;20214;-81
2023/05/24 08:40:55;;;;;;;;;;;19.90;58.40;;;;;;5049890;28;19917;-81
2023/05/24 08:43:21;;;;;;;;;;;19.90;58.50;;;;;;5067830;28;19994;-81
2023/05/24 08:45:47;;;;;;;;;;;19.90;58.50;;;;;;5049455;28;19916;-81
2023/05/24 08:48:13;;;;;;;;;;;19.90;58.60;;;;;;5067111;28;20226;-81
2023/05/24 08:50:40;;;;;;;;;;;19.80;58.70;;;;;;5049293;28;20422;-81
2023/05/24 08:53:07;;;;;;;;;;;19.80;58.80;;;;;;5047592;28;20056;-81
2023/05/24 08:55:34;;;;;;;;;;;19.80;58.90;;;;;;5049179;28;19920;-82
2023/05/24 08:58:00;;;;;;;;;;;19.70;58.90;;;;;;5049824;28;19909;-81
2023/05/24 09:00:26;;;;;;;;;;;19.80;59.00;;;;;;5051066;28;19912;-81
2023/05/24 09:02:52;;;;;;;;;;;19.80;59.40;;;;;;5066244;28;19917;-81
2023/05/24 09:05:20;;;;;;;;;;;19.80;59.00;;;;;;5050382;28;19915;-81
2023/05/24 09:07:47;;;;;;;;;;;19.80;58.90;;;;;;5070882;28;19917;-81
2023/05/24 09:10:13;;;;;;;;;;;19.80;58.90;;;;;;5051533;28;19909;-80
2023/05/24 09:12:39;;;;;;;;;;;19.80;58.90;;;;;;5049037;28;20270;-82
2023/05/24 09:15:05;;;;;;;;;;;19.80;59.00;;;;;;5048262;28;19979;-82
2023/05/24 09:17:31;;;;;;;;;;;19.80;59.00;;;;;;5048408;28;19908;-81
2023/05/24 09:19:58;;;;;;;;;;;19.80;59.00;;;;;;5047553;28;19914;-83
2023/05/24 09:22:26;;;;;;;;;;;19.80;59.00;;;;;;5065253;28;19999;-81
2023/05/24 09:24:52;;;;;;;;;;;19.80;59.00;;;;;;5065735;28;20101;-81
2023/05/24 09:27:21;;;;;;;;;;;19.80;59.00;;;;;;5047193;28;20137;-81
2023/05/24 09:29:52;;;;;;;;;;;19.80;59.00;;;;;;5044587;28;20208;-81
2023/05/24 09:32:22;;;;;;;;;;;19.90;59.10;;;;;;5045686;28;19912;-81
2023/05/24 09:34:48;;;;;;;;;;;19.90;59.10;;;;;;5047865;28;20201;-81
2023/05/24 09:37:15;;;;;;;;;;;20.00;58.90;;;;;;5046650;28;19908;-82
2023/05/24 09:39:41;;;;;;;;;;;20.10;58.70;;;;;;5048356;28;20210;-82
2023/05/24 09:42:06;;;;;;;;;;;20.20;58.50;;;;;;5066250;28;20053;-81
2023/05/24 09:44:32;;;;;;;;;;;20.30;58.30;;;;;;5066803;28;20351;-81
2023/05/24 09:47:00;;;;;;;;;;;20.30;58.20;;;;;;5066435;28;19908;-81
2023/05/24 09:49:26;;;;;;;;;;;20.30;58.10;;;;;;5049738;28;19967;-81
2023/05/24 09:51:52;;;;;;;;;;;20.30;58.10;;;;;;5068008;28;19920;-81
2023/05/24 09:54:19;;;;;;;;;;;20.20;58.20;;;;;;5065876;28;19908;-81
2023/05/24 09:56:45;;;;;;;;;;;20.10;58.30;;;;;;5063500;28;19935;-81
2023/05/24 09:59:10;;;;;;;;;;;20.00;58.40;;;;;;5062211;28;20209;-81
2023/05/24 10:01:36;;;;;;;;;;;20.00;58.60;;;;;;5040868;28;20233;-82
2023/05/24 10:04:05;;;;;;;;;;;20.00;58.70;;;;;;5025094;28;19909;-81
2023/05/24 10:06:34;;;;;;;;;;;19.90;58.70;;;;;;5023826;28;19909;-81
2023/05/24 10:08:59;;;;;;;;;;;19.90;58.90;;;;;;5021463;28;20035;-81
2023/05/24 10:11:25;;;;;;;;;;;19.90;58.90;;;;;;5022150;28;20160;-81
2023/05/24 10:13:51;;;;;;;;;;;19.80;59.00;;;;;;5024817;28;19940;-81
2023/05/24 10:16:17;;;;;;;;;;;19.80;59.00;;;;;;5047386;28;20435;-81
2023/05/24 10:18:42;;;;;;;;;;;19.80;59.10;;;;;;5050045;28;20313;-81
2023/05/24 10:21:09;;;;;;;;;;;19.80;59.10;;;;;;5032623;28;20154;-82
2023/05/24 10:23:36;;;;;;;;;;;19.80;59.10;;;;;;5034077;28;20157;-82
2023/05/24 10:26:05;;;;;;;;;;;19.80;59.10;;;;;;5034638;28;19909;-81
2023/05/24 10:28:33;;;;;;;;;;;19.90;59.10;;;;;;5029150;28;20404;-81
2023/05/24 10:31:01;;;;;;;;;;;19.90;58.90;;;;;;5046915;28;19920;-81
2023/05/24 10:33:27;;;;;;;;;;;20.00;58.80;;;;;;5034454;28;19909;-81
2023/05/24 10:35:56;;;;;;;;;;;20.00;58.70;;;;;;5033949;28;19909;-82
2023/05/24 10:38:23;;;;;;;;;;;20.10;58.70;;;;;;5043676;28;19912;-82
2023/05/24 10:40:48;;;;;;;;;;;20.10;58.50;;;;;;5032568;28;19924;-81
2023/05/24 10:43:15;;;;;;;;;;;20.20;58.50;;;;;;5059190;28;19913;-81
2023/05/24 10:45:41;;;;;;;;;;;20.10;58.50;;;;;;5051255;28;19981;-81
2023/05/24 10:48:13;;;;;;;;;;;20.10;58.40;;;;;;5036205;28;19933;-82
2023/05/24 10:50:39;;;;;;;;;;;20.10;58.40;;;;;;5050446;28;19917;-81
2023/05/24 10:53:14;;;;;;;;;;;20.10;58.40;;;;;;5036017;28;19923;-81
2023/05/24 10:55:56;;;;;;;;;;;20.10;58.40;;;;;;5055502;28;20068;-81
2023/05/24 10:58:43;;;;;;;;;;;20.10;58.40;;;;;;5031774;28;19948;-81
2023/05/24 11:01:12;;;;;;;;;;;20.10;58.40;;;;;;5047593;28;19944;-81
2023/05/24 11:03:40;;;;;;;;;;;20.10;58.40;;;;;;5030021;28;19909;-81
2023/05/24 11:06:06;;;;;;;;;;;20.00;58.40;;;;;;5030687;28;20336;-81
2023/05/24 11:08:32;;;;;;;;;;;20.00;58.40;;;;;;5027807;28;20039;-82
2023/05/24 11:11:10;;;;;;;;;;;20.00;58.50;;;;;;5043956;28;19940;-82
2023/05/24 11:13:37;;;;;;;;;;;20.00;58.50;;;;;;5029193;28;20281;-81
2023/05/24 11:16:03;;;;;;;;;;;20.00;58.50;;;;;;5028046;28;20078;-81
2023/05/24 11:18:30;;;;;;;;;;;20.10;58.40;;;;;;5026221;28;20168;-81
2023/05/24 11:20:56;;;;;;;;;;;20.20;58.30;;;;;;5026796;28;19916;-82
2023/05/24 11:23:22;;;;;;;;;;;20.20;58.10;;;;;;5028484;28;19909;-82
2023/05/24 11:25:48;;;;;;;;;;;20.30;58.00;;;;;;5029609;28;20142;-81
2023/05/24 11:28:13;;;;;;;;;;;20.40;57.90;;;;;;5047564;28;20258;-81
2023/05/24 11:30:39;;;;;;;;;;;20.40;57.80;;;;;;5029082;28;19909;-81
2023/05/24 11:33:12;;;;;;;;;;;20.40;57.70;;;;;;5028160;28;19963;-81
2023/05/24 11:35:38;;;;;;;;;;;20.40;57.60;;;;;;5048984;28;19909;-81
2023/05/24 11:38:08;;;;;;;;;;;20.40;57.60;;;;;;5032199;28;19908;-81
2023/05/24 11:40:34;;;;;;;;;;;20.40;57.70;;;;;;5047975;28;19909;-81
2023/05/24 11:42:59;;;;;;;;;;;20.30;57.70;;;;;;5032016;28;20306;-81
2023/05/24 11:45:27;;;;;;;;;;;20.30;57.80;;;;;;5030275;28;20037;-81
2023/05/24 11:47:54;;;;;;;;;;;20.20;57.90;;;;;;5026740;28;20294;-81
2023/05/24 11:50:25;;;;;;;;;;;20.20;58.00;;;;;;5027615;28;19952;-82
2023/05/24 11:52:50;;;;;;;;;;;20.10;58.10;;;;;;5027004;28;20103;-82
2023/05/24 11:55:22;;;;;;;;;;;20.10;58.20;;;;;;5028082;28;20430;-82
2023/05/24 11:57:53;;;;;;;;;;;20.00;58.30;;;;;;5028795;28;19916;-81
2023/05/24 12:00:25;;;;;;;;;;;20.00;58.30;;;;;;5027452;28;19909;-81
2023/05/24 12:02:51;;;;;;;;;;;20.00;58.40;;;;;;5027078;28;19909;-81
2023/05/24 12:05:21;;;;;;;;;;;20.00;58.50;;;;;;5027982;28;19920;-81
2023/05/24 12:07:47;;;;;;;;;;;20.00;58.60;;;;;;5052083;28;20006;-81
2023/05/24 12:10:14;;;;;;;;;;;19.90;58.90;;;;;;5046005;28;20019;-81
2023/05/24 12:12:43;;;;;;;;;;;19.90;58.60;;;;;;5065768;28;19939;-81
2023/05/24 12:15:10;;;;;;;;;;;19.90;58.70;;;;;;5047431;28;19962;-82
2023/05/24 12:17:36;;;;;;;;;;;19.90;58.60;;;;;;5065601;28;20023;-81
2023/05/24 12:20:02;;;;;;;;;;;19.90;58.70;;;;;;5067064;28;20194;-81
2023/05/24 12:22:28;;;;;;;;;;;19.90;58.70;;;;;;5048949;28;19908;-81
2023/05/24 12:24:54;;;;;;;;;;;19.90;58.70;;;;;;5048533;28;19913;-81
2023/05/24 12:27:24;;;;;;;;;;;19.90;59.20;;;;;;5047826;28;19913;-81
2023/05/24 12:29:49;;;;;;;;;;;19.90;58.70;;;;;;5047593;28;19913;-81
2023/05/24 12:32:16;;;;;;;;;;;19.90;58.70;;;;;;5048451;28;20085;-82
2023/05/24 12:34:42;;;;;;;;;;;19.90;58.70;;;;;;5047267;28;20061;-81
2023/05/24 12:37:08;;;;;;;;;;;19.90;58.70;;;;;;5045922;28;19916;-81
2023/05/24 12:39:35;;;;;;;;;;;19.90;58.60;;;;;;5048391;28;19908;-81
2023/05/24 12:42:01;;;;;;;;;;;20.00;58.50;;;;;;5047756;28;19909;-81
2023/05/24 12:44:30;;;;;;;;;;;20.00;58.50;;;;;;5048441;28;20186;-81
2023/05/24 12:46:57;;;;;;;;;;;20.00;58.30;;;;;;5050518;28;19944;-81
2023/05/24 12:49:23;;;;;;;;;;;20.00;58.30;;;;;;5049510;28;20157;-81
2023/05/24 12:51:49;;;;;;;;;;;20.00;58.30;;;;;;5067123;28;19923;-81
2023/05/24 12:54:15;;;;;;;;;;;20.10;58.30;;;;;;5048758;28;19909;-82
2023/05/24 12:56:40;;;;;;;;;;;20.10;58.30;;;;;;5049464;28;20064;-81
2023/05/24 12:59:06;;;;;;;;;;;20.10;58.60;;;;;;5047938;28;19912;-82
2023/05/24 13:01:31;;;;;;;;;;;20.10;58.10;;;;;;5066565;28;19908;-81
2023/05/24 13:03:58;;;;;;;;;;;20.20;58.10;;;;;;5046044;28;19909;-81
2023/05/24 13:06:24;;;;;;;;;;;20.20;58.00;;;;;;5044383;28;20194;-81
2023/05/24 13:08:49;;;;;;;;;;;20.20;58.00;;;;;;5044871;28;19926;-81
2023/05/24 13:11:15;;;;;;;;;;;20.20;58.10;;;;;;5062107;28;20029;-81
2023/05/24 13:13:43;;;;;;;;;;;20.10;58.10;;;;;;5061021;28;19908;-81
2023/05/24 13:16:09;;;;;;;;;;;20.10;58.10;;;;;;5047153;28;19942;-81
2023/05/24 13:18:36;;;;;;;;;;;20.10;58.20;;;;;;5044230;28;19912;-81
2023/05/24 13:21:04;;;;;;;;;;;20.10;58.20;;;;;;5063539;28;20282;-82
2023/05/24 13:23:38;;;;;;;;;;;20.00;58.20;;;;;;5046420;28;19935;-81
2023/05/24 13:26:03;;;;;;;;;;;20.00;58.30;;;;;;5048750;28;19955;-81
2023/05/24 13:28:29;;;;;;;;;;;20.10;58.40;;;;;;5048487;28;19974;-81
2023/05/24 13:30:55;;;;;;;;;;;20.10;58.40;;;;;;5065807;28;19908;-81
2023/05/24 13:33:21;;;;;;;;;;;20.10;58.40;;;;;;5047524;28;19916;-81
2023/05/24 13:35:46;;;;;;;;;;;20.20;58.30;;;;;;5047209;28;19920;-81
2023/05/24 13:38:12;;;;;;;;;;;20.20;58.20;;;;;;5047675;28;19920;-81
2023/05/24 13:40:38;;;;;;;;;;;20.20;58.30;;;;;;5048248;28;20017;-81
2023/05/24 13:43:04;;;;;;;;;;;20.10;58.20;;;;;;5047562;28;20173;-81
2023/05/24 13:45:31;;;;;;;;;;;20.10;58.40;;;;;;5047092;28;20186;-81
2023/05/24 13:48:02;;;;;;;;;;;20.10;58.40;;;;;;5064856;28;20135;-81
2023/05/24 13:50:35;;;;;;;;;;;20.10;58.50;;;;;;5049161;28;20151;-81
2023/05/24 13:53:02;;;;;;;;;;;20.10;58.50;;;;;;5068937;28;19922;-81
2023/05/24 13:55:28;;;;;;;;;;;20.10;58.50;;;;;;5051567;28;19919;-81
2023/05/24 13:57:54;;;;;;;;;;;20.10;58.50;;;;;;5052015;28;19908;-81
2023/05/24 14:00:20;;;;;;;;;;;20.10;58.50;;;;;;5052525;28;20128;-80
2023/05/24 14:02:46;;;;;;;;;;;20.10;58.50;;;;;;5070495;28;19994;-81
2023/05/24 14:05:12;;;;;;;;;;;20.20;58.50;;;;;;5068270;28;19908;-81
2023/05/24 14:07:38;;;;;;;;;;;20.20;58.40;;;;;;5052820;28;19923;-81
2023/05/24 14:10:03;;;;;;;;;;;20.20;58.40;;;;;;5070318;28;20040;-81
2023/05/24 14:12:41;;;;;;;;;;;20.30;58.30;;;;;;5049663;28;19916;-81